sensor_id;sensor_type;location;lat;lon;timestamp;temperature;humidity
81902;DHT22;71369;50.796;3.290;2023-08-30T00:00:46;13.00;88.30
81902;DHT22;71369;50.796;3.290;2023-08-30T00:03:12;13.10;87.90
81902;DHT22;71369;50.796;3.290;2023-08-30T00:05:41;13.30;87.80
81902;DHT22;71369;50.796;3.290;2023-08-30T00:08:08;13.30;87.50
81902;DHT22;71369;50.796;3.290;2023-08-30T00:10:34;13.40;86.50
81902;DHT22;71369;50.796;3.290;2023-08-30T00:13:00;13.40;86.20
81902;DHT22;71369;50.796;3.290;2023-08-30T00:15:27;13.50;86.00
81902;DHT22;71369;50.796;3.290;2023-08-30T00:17:55;13.60;85.80
81902;DHT22;71369;50.796;3.290;2023-08-30T00:20:21;13.60;85.40
81902;DHT22;71369;50.796;3.290;2023-08-30T00:22:47;13.60;85.30
81902;DHT22;71369;50.796;3.290;2023-08-30T00:25:14;13.60;84.90
81902;DHT22;71369;50.796;3.290;2023-08-30T00:27:40;13.50;85.10
81902;DHT22;71369;50.796;3.290;2023-08-30T00:30:07;13.40;85.40
81902;DHT22;71369;50.796;3.290;2023-08-30T00:32:34;13.40;85.80
81902;DHT22;71369;50.796;3.290;2023-08-30T00:35:00;13.30;86.10
81902;DHT22;71369;50.796;3.290;2023-08-30T00:37:26;13.20;86.80
81902;DHT22;71369;50.796;3.290;2023-08-30T00:39:51;13.10;87.50
81902;DHT22;71369;50.796;3.290;2023-08-30T00:42:17;13.10;87.60
81902;DHT22;71369;50.796;3.290;2023-08-30T00:44:45;13.00;88.60
81902;DHT22;71369;50.796;3.290;2023-08-30T00:47:11;13.00;89.20
81902;DHT22;71369;50.796;3.290;2023-08-30T00:49:36;13.10;89.20
81902;DHT22;71369;50.796;3.290;2023-08-30T00:52:05;13.30;88.30
81902;DHT22;71369;50.796;3.290;2023-08-30T00:54:33;13.40;87.80
81902;DHT22;71369;50.796;3.290;2023-08-30T00:57:00;13.50;87.60
81902;DHT22;71369;50.796;3.290;2023-08-30T00:59:27;13.70;87.50
81902;DHT22;71369;50.796;3.290;2023-08-30T01:01:53;13.80;87.40
81902;DHT22;71369;50.796;3.290;2023-08-30T01:04:20;13.90;87.00
81902;DHT22;71369;50.796;3.290;2023-08-30T01:06:46;14.00;86.90
81902;DHT22;71369;50.796;3.290;2023-08-30T01:09:11;14.10;86.50
81902;DHT22;71369;50.796;3.290;2023-08-30T01:12:04;14.10;86.10
81902;DHT22;71369;50.796;3.290;2023-08-30T01:17:17;14.30;85.80
81902;DHT22;71369;50.796;3.290;2023-08-30T01:20:04;14.30;85.80
81902;DHT22;71369;50.796;3.290;2023-08-30T01:28:19;14.30;86.30
81902;DHT22;71369;50.796;3.290;2023-08-30T01:30:47;14.30;86.30
81902;DHT22;71369;50.796;3.290;2023-08-30T01:33:14;14.40;87.10
81902;DHT22;71369;50.796;3.290;2023-08-30T01:35:44;14.40;87.10
81902;DHT22;71369;50.796;3.290;2023-08-30T01:38:11;14.40;87.30
81902;DHT22;71369;50.796;3.290;2023-08-30T01:40:39;14.50;87.10
81902;DHT22;71369;50.796;3.290;2023-08-30T01:43:07;14.70;87.10
81902;DHT22;71369;50.796;3.290;2023-08-30T01:45:35;14.70;87.20
81902;DHT22;71369;50.796;3.290;2023-08-30T01:48:03;14.80;86.80
81902;DHT22;71369;50.796;3.290;2023-08-30T01:50:30;14.80;86.70
81902;DHT22;71369;50.796;3.290;2023-08-30T01:52:56;14.90;86.70
81902;DHT22;71369;50.796;3.290;2023-08-30T01:55:23;14.90;86.60
81902;DHT22;71369;50.796;3.290;2023-08-30T01:57:55;15.00;86.80
81902;DHT22;71369;50.796;3.290;2023-08-30T02:00:23;15.10;86.70
81902;DHT22;71369;50.796;3.290;2023-08-30T02:02:48;15.10;86.70
81902;DHT22;71369;50.796;3.290;2023-08-30T02:05:14;15.00;86.60
81902;DHT22;71369;50.796;3.290;2023-08-30T02:10:21;15.10;87.30
81902;DHT22;71369;50.796;3.290;2023-08-30T02:12:49;15.10;86.90
81902;DHT22;71369;50.796;3.290;2023-08-30T02:15:16;15.10;86.90
81902;DHT22;71369;50.796;3.290;2023-08-30T02:17:43;15.10;87.30
81902;DHT22;71369;50.796;3.290;2023-08-30T02:20:09;15.10;87.50
81902;DHT22;71369;50.796;3.290;2023-08-30T02:22:35;15.00;88.10
81902;DHT22;71369;50.796;3.290;2023-08-30T02:25:02;15.10;88.10
81902;DHT22;71369;50.796;3.290;2023-08-30T02:27:34;15.20;87.80
81902;DHT22;71369;50.796;3.290;2023-08-30T02:30:05;15.20;87.60
81902;DHT22;71369;50.796;3.290;2023-08-30T02:32:31;15.20;87.60
81902;DHT22;71369;50.796;3.290;2023-08-30T02:34:57;15.30;87.20
81902;DHT22;71369;50.796;3.290;2023-08-30T02:37:23;15.30;86.80
81902;DHT22;71369;50.796;3.290;2023-08-30T02:39:51;15.40;86.70
81902;DHT22;71369;50.796;3.290;2023-08-30T02:42:17;15.30;86.80
81902;DHT22;71369;50.796;3.290;2023-08-30T02:44:43;15.30;86.80
81902;DHT22;71369;50.796;3.290;2023-08-30T02:47:11;15.30;86.90
81902;DHT22;71369;50.796;3.290;2023-08-30T02:49:37;15.30;86.60
81902;DHT22;71369;50.796;3.290;2023-08-30T02:52:03;15.30;86.60
81902;DHT22;71369;50.796;3.290;2023-08-30T02:54:28;15.30;87.60
81902;DHT22;71369;50.796;3.290;2023-08-30T02:56:56;15.20;88.30
81902;DHT22;71369;50.796;3.290;2023-08-30T02:59:22;15.10;89.40
81902;DHT22;71369;50.796;3.290;2023-08-30T03:01:48;14.90;90.10
81902;DHT22;71369;50.796;3.290;2023-08-30T03:04:16;14.80;90.50
81902;DHT22;71369;50.796;3.290;2023-08-30T03:06:41;14.80;90.80
81902;DHT22;71369;50.796;3.290;2023-08-30T03:09:07;14.70;91.00
81902;DHT22;71369;50.796;3.290;2023-08-30T03:11:33;14.70;91.00
81902;DHT22;71369;50.796;3.290;2023-08-30T03:13:58;14.70;91.20
81902;DHT22;71369;50.796;3.290;2023-08-30T03:16:29;14.70;91.50
81902;DHT22;71369;50.796;3.290;2023-08-30T03:18:54;14.60;91.80
81902;DHT22;71369;50.796;3.290;2023-08-30T03:21:20;14.70;92.00
81902;DHT22;71369;50.796;3.290;2023-08-30T03:23:46;14.70;92.00
81902;DHT22;71369;50.796;3.290;2023-08-30T03:26:13;14.60;92.00
81902;DHT22;71369;50.796;3.290;2023-08-30T03:28:40;14.60;92.30
81902;DHT22;71369;50.796;3.290;2023-08-30T03:33:38;14.50;92.60
81902;DHT22;71369;50.796;3.290;2023-08-30T03:36:07;14.50;92.70
81902;DHT22;71369;50.796;3.290;2023-08-30T03:38:34;14.50;92.70
81902;DHT22;71369;50.796;3.290;2023-08-30T03:40:59;14.50;92.90
81902;DHT22;71369;50.796;3.290;2023-08-30T03:43:25;14.50;92.80
81902;DHT22;71369;50.796;3.290;2023-08-30T03:45:51;14.60;92.90
81902;DHT22;71369;50.796;3.290;2023-08-30T03:48:17;14.50;92.70
81902;DHT22;71369;50.796;3.290;2023-08-30T03:50:43;14.60;92.70
81902;DHT22;71369;50.796;3.290;2023-08-30T03:53:09;14.60;92.80
81902;DHT22;71369;50.796;3.290;2023-08-30T03:55:34;14.60;92.80
81902;DHT22;71369;50.796;3.290;2023-08-30T03:58:00;14.60;92.80
81902;DHT22;71369;50.796;3.290;2023-08-30T04:00:26;14.60;92.70
81902;DHT22;71369;50.796;3.290;2023-08-30T04:02:51;14.60;92.70
81902;DHT22;71369;50.796;3.290;2023-08-30T04:05:17;14.60;92.90
81902;DHT22;71369;50.796;3.290;2023-08-30T04:07:43;14.60;92.90
81902;DHT22;71369;50.796;3.290;2023-08-30T04:10:09;14.50;92.80
81902;DHT22;71369;50.796;3.290;2023-08-30T04:12:35;14.60;92.70
81902;DHT22;71369;50.796;3.290;2023-08-30T04:15:03;14.60;92.90
81902;DHT22;71369;50.796;3.290;2023-08-30T04:17:29;14.60;92.80
81902;DHT22;71369;50.796;3.290;2023-08-30T04:19:55;14.60;93.00
81902;DHT22;71369;50.796;3.290;2023-08-30T04:22:20;14.60;93.00
81902;DHT22;71369;50.796;3.290;2023-08-30T04:24:49;14.50;93.10
81902;DHT22;71369;50.796;3.290;2023-08-30T04:27:15;14.50;93.20
81902;DHT22;71369;50.796;3.290;2023-08-30T04:29:43;14.50;93.10
81902;DHT22;71369;50.796;3.290;2023-08-30T04:32:10;14.50;92.80
81902;DHT22;71369;50.796;3.290;2023-08-30T04:34:36;14.50;92.90
81902;DHT22;71369;50.796;3.290;2023-08-30T04:37:02;14.50;92.90
81902;DHT22;71369;50.796;3.290;2023-08-30T04:39:28;14.50;92.90
81902;DHT22;71369;50.796;3.290;2023-08-30T04:41:54;14.50;93.00
81902;DHT22;71369;50.796;3.290;2023-08-30T04:44:21;14.50;93.00
81902;DHT22;71369;50.796;3.290;2023-08-30T04:46:49;14.40;93.00
81902;DHT22;71369;50.796;3.290;2023-08-30T04:49:16;14.40;93.10
81902;DHT22;71369;50.796;3.290;2023-08-30T04:51:41;14.40;93.10
81902;DHT22;71369;50.796;3.290;2023-08-30T04:54:07;14.40;93.40
81902;DHT22;71369;50.796;3.290;2023-08-30T04:56:33;14.40;93.40
81902;DHT22;71369;50.796;3.290;2023-08-30T04:58:58;14.40;93.50
81902;DHT22;71369;50.796;3.290;2023-08-30T05:01:27;14.40;93.50
81902;DHT22;71369;50.796;3.290;2023-08-30T05:03:52;14.40;93.60
81902;DHT22;71369;50.796;3.290;2023-08-30T05:06:18;14.40;93.70
81902;DHT22;71369;50.796;3.290;2023-08-30T05:08:43;14.50;93.70
81902;DHT22;71369;50.796;3.290;2023-08-30T05:11:09;14.50;93.80
81902;DHT22;71369;50.796;3.290;2023-08-30T05:13:35;14.40;94.20
81902;DHT22;71369;50.796;3.290;2023-08-30T05:16:00;14.50;94.10
81902;DHT22;71369;50.796;3.290;2023-08-30T05:18:26;14.50;93.90
81902;DHT22;71369;50.796;3.290;2023-08-30T05:20:52;14.60;93.80
81902;DHT22;71369;50.796;3.290;2023-08-30T05:23:19;14.60;93.80
81902;DHT22;71369;50.796;3.290;2023-08-30T05:25:45;14.60;93.80
81902;DHT22;71369;50.796;3.290;2023-08-30T05:28:12;14.50;94.10
81902;DHT22;71369;50.796;3.290;2023-08-30T05:30:41;14.60;94.10
81902;DHT22;71369;50.796;3.290;2023-08-30T05:33:07;14.70;94.00
81902;DHT22;71369;50.796;3.290;2023-08-30T05:35:32;14.70;93.90
81902;DHT22;71369;50.796;3.290;2023-08-30T05:38:00;14.60;94.40
81902;DHT22;71369;50.796;3.290;2023-08-30T05:40:28;14.70;94.00
81902;DHT22;71369;50.796;3.290;2023-08-30T05:42:54;14.80;94.00
81902;DHT22;71369;50.796;3.290;2023-08-30T05:45:20;14.70;93.90
81902;DHT22;71369;50.796;3.290;2023-08-30T05:47:46;14.70;94.00
81902;DHT22;71369;50.796;3.290;2023-08-30T05:50:12;14.80;94.00
81902;DHT22;71369;50.796;3.290;2023-08-30T05:52:40;14.90;94.00
81902;DHT22;71369;50.796;3.290;2023-08-30T05:55:08;14.90;93.80
81902;DHT22;71369;50.796;3.290;2023-08-30T05:57:36;14.90;93.80
81902;DHT22;71369;50.796;3.290;2023-08-30T06:00:02;14.90;94.00
81902;DHT22;71369;50.796;3.290;2023-08-30T06:02:30;14.90;94.10
81902;DHT22;71369;50.796;3.290;2023-08-30T06:04:56;14.90;94.10
81902;DHT22;71369;50.796;3.290;2023-08-30T06:07:21;15.10;93.90
81902;DHT22;71369;50.796;3.290;2023-08-30T06:09:47;15.10;93.60
81902;DHT22;71369;50.796;3.290;2023-08-30T06:12:13;15.00;93.80
81902;DHT22;71369;50.796;3.290;2023-08-30T06:14:38;15.00;93.90
81902;DHT22;71369;50.796;3.290;2023-08-30T06:17:04;15.10;93.80
81902;DHT22;71369;50.796;3.290;2023-08-30T06:19:30;15.20;93.80
81902;DHT22;71369;50.796;3.290;2023-08-30T06:21:55;15.20;93.80
81902;DHT22;71369;50.796;3.290;2023-08-30T06:24:22;15.20;93.70
81902;DHT22;71369;50.796;3.290;2023-08-30T06:26:47;15.20;93.60
81902;DHT22;71369;50.796;3.290;2023-08-30T06:29:13;15.20;93.60
81902;DHT22;71369;50.796;3.290;2023-08-30T06:31:39;15.20;93.80
81902;DHT22;71369;50.796;3.290;2023-08-30T06:34:10;15.20;93.90
81902;DHT22;71369;50.796;3.290;2023-08-30T06:36:35;15.20;93.80
81902;DHT22;71369;50.796;3.290;2023-08-30T06:39:01;15.20;93.80
81902;DHT22;71369;50.796;3.290;2023-08-30T06:41:27;15.30;93.80
81902;DHT22;71369;50.796;3.290;2023-08-30T06:43:52;15.40;93.80
81902;DHT22;71369;50.796;3.290;2023-08-30T06:46:19;15.50;93.60
81902;DHT22;71369;50.796;3.290;2023-08-30T06:48:44;15.60;93.40
81902;DHT22;71369;50.796;3.290;2023-08-30T06:51:10;15.60;93.40
81902;DHT22;71369;50.796;3.290;2023-08-30T06:53:36;15.70;93.50
81902;DHT22;71369;50.796;3.290;2023-08-30T06:56:02;15.70;93.20
81902;DHT22;71369;50.796;3.290;2023-08-30T06:58:27;15.80;93.30
81902;DHT22;71369;50.796;3.290;2023-08-30T07:00:53;15.90;93.20
81902;DHT22;71369;50.796;3.290;2023-08-30T07:03:19;16.10;93.20
81902;DHT22;71369;50.796;3.290;2023-08-30T07:05:45;16.30;92.80
81902;DHT22;71369;50.796;3.290;2023-08-30T07:08:14;16.50;92.50
81902;DHT22;71369;50.796;3.290;2023-08-30T07:10:43;16.60;92.50
81902;DHT22;71369;50.796;3.290;2023-08-30T07:13:08;16.70;91.90
81902;DHT22;71369;50.796;3.290;2023-08-30T07:15:41;16.70;91.70
81902;DHT22;71369;50.796;3.290;2023-08-30T07:18:08;16.70;91.70
81902;DHT22;71369;50.796;3.290;2023-08-30T07:20:34;16.70;91.70
81902;DHT22;71369;50.796;3.290;2023-08-30T07:23:02;16.80;91.80
81902;DHT22;71369;50.796;3.290;2023-08-30T07:25:30;16.90;91.70
81902;DHT22;71369;50.796;3.290;2023-08-30T07:28:00;16.90;91.50
81902;DHT22;71369;50.796;3.290;2023-08-30T07:30:25;16.80;91.40
81902;DHT22;71369;50.796;3.290;2023-08-30T07:32:51;16.60;91.90
81902;DHT22;71369;50.796;3.290;2023-08-30T07:35:17;16.70;92.00
81902;DHT22;71369;50.796;3.290;2023-08-30T07:37:43;16.70;92.10
81902;DHT22;71369;50.796;3.290;2023-08-30T07:40:09;16.60;91.90
81902;DHT22;71369;50.796;3.290;2023-08-30T07:42:37;16.60;92.00
81902;DHT22;71369;50.796;3.290;2023-08-30T07:45:03;16.50;92.60
81902;DHT22;71369;50.796;3.290;2023-08-30T07:47:30;16.50;91.90
81902;DHT22;71369;50.796;3.290;2023-08-30T07:49:55;16.50;92.50
81902;DHT22;71369;50.796;3.290;2023-08-30T07:52:21;16.60;91.70
81902;DHT22;71369;50.796;3.290;2023-08-30T07:54:47;16.70;91.80
81902;DHT22;71369;50.796;3.290;2023-08-30T07:57:13;17.00;91.70
81902;DHT22;71369;50.796;3.290;2023-08-30T07:59:39;16.90;91.50
81902;DHT22;71369;50.796;3.290;2023-08-30T08:02:05;16.90;91.00
81902;DHT22;71369;50.796;3.290;2023-08-30T08:04:33;16.80;90.80
81902;DHT22;71369;50.796;3.290;2023-08-30T08:06:59;16.70;90.90
81902;DHT22;71369;50.796;3.290;2023-08-30T08:09:25;16.50;91.20
81902;DHT22;71369;50.796;3.290;2023-08-30T08:11:51;16.50;91.30
81902;DHT22;71369;50.796;3.290;2023-08-30T08:14:17;16.60;91.20
81902;DHT22;71369;50.796;3.290;2023-08-30T08:16:46;16.80;91.00
81902;DHT22;71369;50.796;3.290;2023-08-30T08:19:11;17.50;90.60
81902;DHT22;71369;50.796;3.290;2023-08-30T08:21:38;18.40;84.80
81902;DHT22;71369;50.796;3.290;2023-08-30T08:24:03;18.80;81.40
81902;DHT22;71369;50.796;3.290;2023-08-30T08:26:29;19.50;80.30
81902;DHT22;71369;50.796;3.290;2023-08-30T08:28:55;20.30;74.90
81902;DHT22;71369;50.796;3.290;2023-08-30T08:31:21;20.50;74.70
81902;DHT22;71369;50.796;3.290;2023-08-30T08:33:50;20.80;73.40
81902;DHT22;71369;50.796;3.290;2023-08-30T08:36:16;20.40;72.00
81902;DHT22;71369;50.796;3.290;2023-08-30T08:38:42;20.10;73.40
81902;DHT22;71369;50.796;3.290;2023-08-30T08:41:12;20.70;71.60
81902;DHT22;71369;50.796;3.290;2023-08-30T08:43:41;21.40;67.70
81902;DHT22;71369;50.796;3.290;2023-08-30T08:46:10;22.30;65.70
81902;DHT22;71369;50.796;3.290;2023-08-30T08:48:40;22.70;61.40
81902;DHT22;71369;50.796;3.290;2023-08-30T08:51:06;22.70;59.90
81902;DHT22;71369;50.796;3.290;2023-08-30T08:53:33;23.00;60.60
81902;DHT22;71369;50.796;3.290;2023-08-30T08:56:00;22.70;60.80
81902;DHT22;71369;50.796;3.290;2023-08-30T08:58:27;22.40;61.00
81902;DHT22;71369;50.796;3.290;2023-08-30T09:00:54;21.90;62.30
81902;DHT22;71369;50.796;3.290;2023-08-30T09:03:20;22.20;59.90
81902;DHT22;71369;50.796;3.290;2023-08-30T09:05:47;21.90;56.50
81902;DHT22;71369;50.796;3.290;2023-08-30T09:08:15;22.90;59.20
81902;DHT22;71369;50.796;3.290;2023-08-30T09:10:41;23.60;56.40
81902;DHT22;71369;50.796;3.290;2023-08-30T09:13:07;24.00;54.80
81902;DHT22;71369;50.796;3.290;2023-08-30T09:15:35;24.80;52.50
81902;DHT22;71369;50.796;3.290;2023-08-30T09:18:04;24.60;50.30
81902;DHT22;71369;50.796;3.290;2023-08-30T09:20:29;24.80;49.10
81902;DHT22;71369;50.796;3.290;2023-08-30T09:22:55;24.00;49.30
81902;DHT22;71369;50.796;3.290;2023-08-30T09:25:26;23.90;51.40
81902;DHT22;71369;50.796;3.290;2023-08-30T09:27:59;22.90;53.40
81902;DHT22;71369;50.796;3.290;2023-08-30T09:30:25;22.20;55.30
81902;DHT22;71369;50.796;3.290;2023-08-30T09:32:53;22.20;56.00
81902;DHT22;71369;50.796;3.290;2023-08-30T09:35:21;22.60;55.90
81902;DHT22;71369;50.796;3.290;2023-08-30T09:37:49;22.40;54.10
81902;DHT22;71369;50.796;3.290;2023-08-30T09:40:18;21.90;54.40
81902;DHT22;71369;50.796;3.290;2023-08-30T09:42:44;22.00;52.40
81902;DHT22;71369;50.796;3.290;2023-08-30T09:45:23;21.60;54.10
81902;DHT22;71369;50.796;3.290;2023-08-30T09:47:50;22.10;53.00
81902;DHT22;71369;50.796;3.290;2023-08-30T09:50:20;23.00;53.30
81902;DHT22;71369;50.796;3.290;2023-08-30T09:52:55;22.60;50.00
81902;DHT22;71369;50.796;3.290;2023-08-30T09:55:21;23.10;49.00
81902;DHT22;71369;50.796;3.290;2023-08-30T09:57:48;23.60;48.00
81902;DHT22;71369;50.796;3.290;2023-08-30T10:00:15;24.30;45.90
81902;DHT22;71369;50.796;3.290;2023-08-30T10:02:44;23.70;46.20
81902;DHT22;71369;50.796;3.290;2023-08-30T10:05:10;23.60;46.30
81902;DHT22;71369;50.796;3.290;2023-08-30T10:07:37;24.30;46.00
81902;DHT22;71369;50.796;3.290;2023-08-30T10:10:04;25.60;43.70
81902;DHT22;71369;50.796;3.290;2023-08-30T10:12:31;25.70;40.70
81902;DHT22;71369;50.796;3.290;2023-08-30T10:15:00;25.80;40.40
81902;DHT22;71369;50.796;3.290;2023-08-30T10:17:32;26.30;41.70
81902;DHT22;71369;50.796;3.290;2023-08-30T10:20:04;26.60;39.00
81902;DHT22;71369;50.796;3.290;2023-08-30T10:22:30;26.30;40.20
81902;DHT22;71369;50.796;3.290;2023-08-30T10:24:58;26.30;38.30
81902;DHT22;71369;50.796;3.290;2023-08-30T10:27:26;25.60;38.10
81902;DHT22;71369;50.796;3.290;2023-08-30T10:29:52;25.00;41.30
81902;DHT22;71369;50.796;3.290;2023-08-30T10:32:22;25.20;42.60
81902;DHT22;71369;50.796;3.290;2023-08-30T10:34:49;26.50;39.90
81902;DHT22;71369;50.796;3.290;2023-08-30T10:37:15;27.30;38.90
81902;DHT22;71369;50.796;3.290;2023-08-30T10:39:42;26.90;37.60
81902;DHT22;71369;50.796;3.290;2023-08-30T10:42:13;25.40;40.00
81902;DHT22;71369;50.796;3.290;2023-08-30T10:47:24;26.20;39.40
81902;DHT22;71369;50.796;3.290;2023-08-30T10:50:00;26.40;39.20
81902;DHT22;71369;50.796;3.290;2023-08-30T10:52:27;27.00;36.60
81902;DHT22;71369;50.796;3.290;2023-08-30T10:55:15;27.20;37.10
81902;DHT22;71369;50.796;3.290;2023-08-30T10:57:45;27.70;36.10
81902;DHT22;71369;50.796;3.290;2023-08-30T11:02:51;29.60;35.20
81902;DHT22;71369;50.796;3.290;2023-08-30T11:05:18;28.30;34.30
81902;DHT22;71369;50.796;3.290;2023-08-30T11:07:44;29.00;34.30
81902;DHT22;71369;50.796;3.290;2023-08-30T11:10:11;26.80;37.00
81902;DHT22;71369;50.796;3.290;2023-08-30T11:12:36;26.30;40.50
81902;DHT22;71369;50.796;3.290;2023-08-30T11:15:03;26.40;36.00
81902;DHT22;71369;50.796;3.290;2023-08-30T11:17:29;26.30;36.40
81902;DHT22;71369;50.796;3.290;2023-08-30T11:20:17;26.40;38.20
81902;DHT22;71369;50.796;3.290;2023-08-30T11:22:46;26.50;38.60
81902;DHT22;71369;50.796;3.290;2023-08-30T11:25:14;25.90;38.70
81902;DHT22;71369;50.796;3.290;2023-08-30T11:27:40;25.70;38.60
81902;DHT22;71369;50.796;3.290;2023-08-30T11:30:07;26.30;37.70
81902;DHT22;71369;50.796;3.290;2023-08-30T11:32:38;26.70;36.40
81902;DHT22;71369;50.796;3.290;2023-08-30T11:35:05;26.90;36.70
81902;DHT22;71369;50.796;3.290;2023-08-30T11:37:32;27.30;36.80
81902;DHT22;71369;50.796;3.290;2023-08-30T11:39:58;28.00;35.10
81902;DHT22;71369;50.796;3.290;2023-08-30T11:42:24;27.70;35.30
81902;DHT22;71369;50.796;3.290;2023-08-30T11:44:51;26.80;36.50
81902;DHT22;71369;50.796;3.290;2023-08-30T11:47:24;27.20;36.40
81902;DHT22;71369;50.796;3.290;2023-08-30T11:49:51;28.60;35.10
81902;DHT22;71369;50.796;3.290;2023-08-30T11:52:20;28.60;34.00
81902;DHT22;71369;50.796;3.290;2023-08-30T11:54:50;28.10;35.00
81902;DHT22;71369;50.796;3.290;2023-08-30T11:57:16;28.30;36.40
81902;DHT22;71369;50.796;3.290;2023-08-30T11:59:42;27.20;37.00
81902;DHT22;71369;50.796;3.290;2023-08-30T12:02:08;26.40;38.70
81902;DHT22;71369;50.796;3.290;2023-08-30T12:04:46;25.20;40.90
81902;DHT22;71369;50.796;3.290;2023-08-30T12:07:23;24.60;42.70
81902;DHT22;71369;50.796;3.290;2023-08-30T12:09:49;25.60;41.10
81902;DHT22;71369;50.796;3.290;2023-08-30T12:12:14;26.70;38.80
81902;DHT22;71369;50.796;3.290;2023-08-30T12:14:41;25.20;40.20
81902;DHT22;71369;50.796;3.290;2023-08-30T12:17:10;23.60;43.90
81902;DHT22;71369;50.796;3.290;2023-08-30T12:19:37;23.40;46.30
81902;DHT22;71369;50.796;3.290;2023-08-30T12:22:06;24.40;44.00
81902;DHT22;71369;50.796;3.290;2023-08-30T12:24:46;24.90;42.70
81902;DHT22;71369;50.796;3.290;2023-08-30T12:27:12;25.60;40.60
81902;DHT22;71369;50.796;3.290;2023-08-30T12:29:38;25.40;42.30
81902;DHT22;71369;50.796;3.290;2023-08-30T12:32:04;25.40;43.70
81902;DHT22;71369;50.796;3.290;2023-08-30T12:34:30;25.20;39.40
81902;DHT22;71369;50.796;3.290;2023-08-30T12:36:55;24.20;42.60
81902;DHT22;71369;50.796;3.290;2023-08-30T12:39:21;23.30;44.90
81902;DHT22;71369;50.796;3.290;2023-08-30T12:41:47;22.40;47.00
81902;DHT22;71369;50.796;3.290;2023-08-30T12:44:12;21.60;49.60
81902;DHT22;71369;50.796;3.290;2023-08-30T12:46:38;21.00;50.90
81902;DHT22;71369;50.796;3.290;2023-08-30T12:49:04;21.10;52.20
81902;DHT22;71369;50.796;3.290;2023-08-30T12:51:30;21.30;52.40
81902;DHT22;71369;50.796;3.290;2023-08-30T12:53:58;21.10;51.70
81902;DHT22;71369;50.796;3.290;2023-08-30T12:56:24;21.10;50.60
81902;DHT22;71369;50.796;3.290;2023-08-30T12:58:49;21.40;49.90
81902;DHT22;71369;50.796;3.290;2023-08-30T13:01:16;21.50;49.90
81902;DHT22;71369;50.796;3.290;2023-08-30T13:03:42;21.60;50.30
81902;DHT22;71369;50.796;3.290;2023-08-30T13:06:08;21.60;48.40
81902;DHT22;71369;50.796;3.290;2023-08-30T13:08:36;21.50;49.10
81902;DHT22;71369;50.796;3.290;2023-08-30T13:11:03;21.40;49.20
81902;DHT22;71369;50.796;3.290;2023-08-30T13:13:29;21.30;50.50
81902;DHT22;71369;50.796;3.290;2023-08-30T13:15:55;21.00;51.40
81902;DHT22;71369;50.796;3.290;2023-08-30T13:18:20;21.00;52.40
81902;DHT22;71369;50.796;3.290;2023-08-30T13:20:47;20.60;52.60
81902;DHT22;71369;50.796;3.290;2023-08-30T13:23:12;20.70;51.30
81902;DHT22;71369;50.796;3.290;2023-08-30T13:25:41;20.80;51.60
81902;DHT22;71369;50.796;3.290;2023-08-30T13:28:07;21.00;51.50
81902;DHT22;71369;50.796;3.290;2023-08-30T13:30:33;20.70;52.00
81902;DHT22;71369;50.796;3.290;2023-08-30T13:32:59;20.30;52.50
81902;DHT22;71369;50.796;3.290;2023-08-30T13:35:24;20.30;53.00
81902;DHT22;71369;50.796;3.290;2023-08-30T13:37:50;20.90;51.80
81902;DHT22;71369;50.796;3.290;2023-08-30T13:40:16;21.70;49.20
81902;DHT22;71369;50.796;3.290;2023-08-30T13:42:42;22.90;47.00
81902;DHT22;71369;50.796;3.290;2023-08-30T13:45:08;24.50;44.70
81902;DHT22;71369;50.796;3.290;2023-08-30T13:47:35;25.70;41.70
81902;DHT22;71369;50.796;3.290;2023-08-30T13:50:01;25.20;41.80
81902;DHT22;71369;50.796;3.290;2023-08-30T13:52:27;24.50;40.00
81902;DHT22;71369;50.796;3.290;2023-08-30T13:54:54;24.50;40.20
81902;DHT22;71369;50.796;3.290;2023-08-30T13:57:20;24.60;38.60
81902;DHT22;71369;50.796;3.290;2023-08-30T13:59:46;24.80;38.30
81902;DHT22;71369;50.796;3.290;2023-08-30T14:02:11;25.20;37.90
81902;DHT22;71369;50.796;3.290;2023-08-30T14:04:37;25.30;38.70
81902;DHT22;71369;50.796;3.290;2023-08-30T14:07:03;25.60;39.60
81902;DHT22;71369;50.796;3.290;2023-08-30T14:09:29;24.90;37.90
81902;DHT22;71369;50.796;3.290;2023-08-30T14:11:55;23.50;41.80
81902;DHT22;71369;50.796;3.290;2023-08-30T14:14:21;22.80;45.80
81902;DHT22;71369;50.796;3.290;2023-08-30T14:16:47;22.50;46.20
81902;DHT22;71369;50.796;3.290;2023-08-30T14:19:15;22.50;45.10
81902;DHT22;71369;50.796;3.290;2023-08-30T14:21:41;22.20;44.80
81902;DHT22;71369;50.796;3.290;2023-08-30T14:24:06;22.10;45.50
81902;DHT22;71369;50.796;3.290;2023-08-30T14:26:32;21.60;46.50
81902;DHT22;71369;50.796;3.290;2023-08-30T14:28:58;21.30;48.90
81902;DHT22;71369;50.796;3.290;2023-08-30T14:31:23;21.60;48.40
81902;DHT22;71369;50.796;3.290;2023-08-30T14:33:55;21.60;48.50
81902;DHT22;71369;50.796;3.290;2023-08-30T14:36:23;21.70;49.10
81902;DHT22;71369;50.796;3.290;2023-08-30T14:38:49;21.90;48.60
81902;DHT22;71369;50.796;3.290;2023-08-30T14:41:15;22.10;49.70
81902;DHT22;71369;50.796;3.290;2023-08-30T14:43:42;22.50;46.90
81902;DHT22;71369;50.796;3.290;2023-08-30T14:46:08;22.20;44.90
81902;DHT22;71369;50.796;3.290;2023-08-30T14:48:34;21.70;45.40
81902;DHT22;71369;50.796;3.290;2023-08-30T14:51:01;21.50;45.80
81902;DHT22;71369;50.796;3.290;2023-08-30T14:53:27;20.70;48.70
81902;DHT22;71369;50.796;3.290;2023-08-30T14:55:53;20.20;51.20
81902;DHT22;71369;50.796;3.290;2023-08-30T14:58:20;20.40;51.40
81902;DHT22;71369;50.796;3.290;2023-08-30T15:00:49;20.30;51.70
81902;DHT22;71369;50.796;3.290;2023-08-30T15:03:15;20.10;52.30
81902;DHT22;71369;50.796;3.290;2023-08-30T15:05:41;19.90;52.20
81902;DHT22;71369;50.796;3.290;2023-08-30T15:08:07;19.60;53.40
81902;DHT22;71369;50.796;3.290;2023-08-30T15:10:33;19.50;57.30
81902;DHT22;71369;50.796;3.290;2023-08-30T15:12:58;19.10;58.00
81902;DHT22;71369;50.796;3.290;2023-08-30T15:15:27;18.60;60.30
81902;DHT22;71369;50.796;3.290;2023-08-30T15:17:55;18.30;64.10
81902;DHT22;71369;50.796;3.290;2023-08-30T15:20:21;18.10;64.20
81902;DHT22;71369;50.796;3.290;2023-08-30T15:22:46;17.80;65.00
81902;DHT22;71369;50.796;3.290;2023-08-30T15:25:12;17.70;67.50
81902;DHT22;71369;50.796;3.290;2023-08-30T15:27:38;17.70;66.50
81902;DHT22;71369;50.796;3.290;2023-08-30T15:30:04;17.40;66.90
81902;DHT22;71369;50.796;3.290;2023-08-30T15:32:30;17.30;67.60
81902;DHT22;71369;50.796;3.290;2023-08-30T15:34:57;17.30;67.70
81902;DHT22;71369;50.796;3.290;2023-08-30T15:37:23;17.20;67.90
81902;DHT22;71369;50.796;3.290;2023-08-30T15:39:58;17.20;68.60
81902;DHT22;71369;50.796;3.290;2023-08-30T15:42:24;17.20;68.50
81902;DHT22;71369;50.796;3.290;2023-08-30T15:44:50;17.40;68.60
81902;DHT22;71369;50.796;3.290;2023-08-30T15:47:16;17.60;69.30